sensor_id;sensor_type;location;lat;lon;timestamp;pressure;altitude;pressure_sealevel;temperature;humidity
76460;BME280;65299;46.084;18.762;2023-06-01T00:01:12;100713.59;;;17.58;74.04
76460;BME280;65299;46.084;18.762;2023-06-01T00:04:13;100717.47;;;17.52;73.95
76460;BME280;65299;46.084;18.762;2023-06-01T00:07:13;100712.97;;;17.48;73.93
76460;BME280;65299;46.084;18.762;2023-06-01T00:10:14;100712.34;;;17.37;74.39
76460;BME280;65299;46.084;18.762;2023-06-01T00:13:15;100705.31;;;17.27;74.98
76460;BME280;65299;46.084;18.762;2023-06-01T00:16:16;100714.22;;;17.23;74.83
76460;BME280;65299;46.084;18.762;2023-06-01T00:19:17;100715.41;;;17.03;75.80
76460;BME280;65299;46.084;18.762;2023-06-01T00:22:19;100699.63;;;17.02;76.21
76460;BME280;65299;46.084;18.762;2023-06-01T00:25:20;100697.81;;;16.97;76.66
76460;BME280;65299;46.084;18.762;2023-06-01T00:28:20;100696.00;;;16.93;77.55
76460;BME280;65299;46.084;18.762;2023-06-01T00:31:20;100679.25;;;17.01;77.63
76460;BME280;65299;46.084;18.762;2023-06-01T00:34:21;100690.47;;;17.03;76.71
76460;BME280;65299;46.084;18.762;2023-06-01T00:37:21;100691.66;;;16.97;76.59
76460;BME280;65299;46.084;18.762;2023-06-01T00:40:22;100692.44;;;16.84;77.05
76460;BME280;65299;46.084;18.762;2023-06-01T00:43:22;100689.25;;;16.82;77.10
76460;BME280;65299;46.084;18.762;2023-06-01T00:46:23;100697.78;;;16.84;77.28
76460;BME280;65299;46.084;18.762;2023-06-01T00:49:23;100695.81;;;16.89;77.25
76460;BME280;65299;46.084;18.762;2023-06-01T00:52:24;100683.72;;;16.92;76.96
76460;BME280;65299;46.084;18.762;2023-06-01T00:55:26;100684.88;;;16.86;76.85
76460;BME280;65299;46.084;18.762;2023-06-01T00:58:27;100684.63;;;16.69;77.34
76460;BME280;65299;46.084;18.762;2023-06-01T01:01:27;100685.56;;;16.78;77.16
76460;BME280;65299;46.084;18.762;2023-06-01T01:04:28;100688.25;;;16.78;76.61
76460;BME280;65299;46.084;18.762;2023-06-01T01:14:20;100679.22;;;16.55;77.33
76460;BME280;65299;46.084;18.762;2023-06-01T01:17:33;100676.88;;;16.48;77.25
76460;BME280;65299;46.084;18.762;2023-06-01T01:20:41;100686.97;;;16.56;77.33
76460;BME280;65299;46.084;18.762;2023-06-01T01:24:15;100683.59;;;16.51;77.09
76460;BME280;65299;46.084;18.762;2023-06-01T01:27:28;100685.16;;;16.52;76.67
76460;BME280;65299;46.084;18.762;2023-06-01T01:30:40;100687.50;;;16.72;76.35
76460;BME280;65299;46.084;18.762;2023-06-01T01:33:41;100684.94;;;16.67;76.25
76460;BME280;65299;46.084;18.762;2023-06-01T01:36:42;100686.59;;;16.95;75.36
76460;BME280;65299;46.084;18.762;2023-06-01T01:39:43;100692.66;;;17.01;75.13
76460;BME280;65299;46.084;18.762;2023-06-01T01:42:43;100698.72;;;17.06;74.58
76460;BME280;65299;46.084;18.762;2023-06-01T01:45:49;100692.38;;;16.70;75.65
76460;BME280;65299;46.084;18.762;2023-06-01T01:49:09;100686.69;;;16.72;75.16
76460;BME280;65299;46.084;18.762;2023-06-01T01:52:18;100692.47;;;16.65;75.45
76460;BME280;65299;46.084;18.762;2023-06-01T01:55:21;100696.19;;;16.83;74.69
76460;BME280;65299;46.084;18.762;2023-06-01T01:58:25;100695.19;;;16.92;74.18
76460;BME280;65299;46.084;18.762;2023-06-01T02:01:26;100690.25;;;16.86;74.41
76460;BME280;65299;46.084;18.762;2023-06-01T02:04:27;100694.00;;;16.85;75.02
76460;BME280;65299;46.084;18.762;2023-06-01T02:07:27;100689.06;;;16.92;74.52
76460;BME280;65299;46.084;18.762;2023-06-01T02:10:28;100689.06;;;16.92;74.43
76460;BME280;65299;46.084;18.762;2023-06-01T02:13:28;100689.25;;;16.82;74.50
76460;BME280;65299;46.084;18.762;2023-06-01T02:16:28;100688.75;;;16.80;74.53
76460;BME280;65299;46.084;18.762;2023-06-01T02:19:29;100696.34;;;16.73;74.95
76460;BME280;65299;46.084;18.762;2023-06-01T02:22:30;100696.94;;;16.70;74.77
76460;BME280;65299;46.084;18.762;2023-06-01T02:25:31;100700.72;;;16.69;74.79
76460;BME280;65299;46.084;18.762;2023-06-01T02:28:31;100697.53;;;16.67;74.66
76460;BME280;65299;46.084;18.762;2023-06-01T02:31:32;100695.50;;;16.58;74.71
76460;BME280;65299;46.084;18.762;2023-06-01T02:34:33;100693.53;;;16.45;75.44
76460;BME280;65299;46.084;18.762;2023-06-01T02:37:33;100691.59;;;16.32;76.31
76460;BME280;65299;46.084;18.762;2023-06-01T02:40:34;100695.09;;;16.33;75.24
76460;BME280;65299;46.084;18.762;2023-06-01T02:43:35;100685.88;;;16.20;75.75
76460;BME280;65299;46.084;18.762;2023-06-01T02:46:35;100688.41;;;16.30;75.64
76460;BME280;65299;46.084;18.762;2023-06-01T02:49:36;100690.50;;;16.33;75.29
76460;BME280;65299;46.084;18.762;2023-06-01T02:52:36;100686.41;;;16.22;75.56
76460;BME280;65299;46.084;18.762;2023-06-01T02:55:37;100695.97;;;15.86;76.60
76460;BME280;65299;46.084;18.762;2023-06-01T02:58:37;100698.66;;;15.86;76.51
76460;BME280;65299;46.084;18.762;2023-06-01T03:01:37;100688.09;;;15.95;75.85
76460;BME280;65299;46.084;18.762;2023-06-01T03:04:38;100699.16;;;15.88;76.19
76460;BME280;65299;46.084;18.762;2023-06-01T03:07:39;100694.91;;;15.87;76.27
76460;BME280;65299;46.084;18.762;2023-06-01T03:10:39;100701.78;;;15.93;76.05
76460;BME280;65299;46.084;18.762;2023-06-01T03:13:40;100706.88;;;16.13;75.28
76460;BME280;65299;46.084;18.762;2023-06-01T03:16:40;100707.38;;;16.15;75.61
76460;BME280;65299;46.084;18.762;2023-06-01T03:19:41;100702.00;;;16.15;75.41
76460;BME280;65299;46.084;18.762;2023-06-01T03:22:45;100705.06;;;16.27;74.78
76460;BME280;65299;46.084;18.762;2023-06-01T03:25:46;100704.03;;;16.23;74.66
76460;BME280;65299;46.084;18.762;2023-06-01T03:28:47;100703.19;;;16.28;74.08
76460;BME280;65299;46.084;18.762;2023-06-01T03:31:47;100706.16;;;16.45;73.71
76460;BME280;65299;46.084;18.762;2023-06-01T03:34:48;100703.03;;;16.19;74.50
76460;BME280;65299;46.084;18.762;2023-06-01T03:37:48;100702.88;;;15.92;75.50
76460;BME280;65299;46.084;18.762;2023-06-01T03:40:48;100707.31;;;16.02;74.92
76460;BME280;65299;46.084;18.762;2023-06-01T03:43:49;100709.75;;;15.98;75.05
76460;BME280;65299;46.084;18.762;2023-06-01T03:46:50;100710.84;;;16.34;74.06
76460;BME280;65299;46.084;18.762;2023-06-01T03:49:50;100714.19;;;16.45;73.85
76460;BME280;65299;46.084;18.762;2023-06-01T03:52:51;100709.19;;;16.38;73.88
76460;BME280;65299;46.084;18.762;2023-06-01T03:55:51;100714.97;;;16.45;73.80
76460;BME280;65299;46.084;18.762;2023-06-01T03:58:52;100715.94;;;16.87;72.59
76460;BME280;65299;46.084;18.762;2023-06-01T04:01:53;100717.59;;;17.15;72.07
76460;BME280;65299;46.084;18.762;2023-06-01T04:04:53;100710.19;;;17.39;70.79
76460;BME280;65299;46.084;18.762;2023-06-01T04:07:55;100721.16;;;17.70;70.16
76460;BME280;65299;46.084;18.762;2023-06-01T04:10:55;100724.91;;;17.96;69.39
76460;BME280;65299;46.084;18.762;2023-06-01T04:13:56;100730.22;;;18.23;68.18
76460;BME280;65299;46.084;18.762;2023-06-01T04:16:56;100728.78;;;18.39;67.82
76460;BME280;65299;46.084;18.762;2023-06-01T04:19:56;100735.63;;;18.81;66.36
76460;BME280;65299;46.084;18.762;2023-06-01T04:22:57;100740.56;;;19.10;66.00
76460;BME280;65299;46.084;18.762;2023-06-01T04:25:57;100744.63;;;19.29;67.86
76460;BME280;65299;46.084;18.762;2023-06-01T04:28:59;100749.69;;;19.31;68.73
76460;BME280;65299;46.084;18.762;2023-06-01T04:32:00;100745.50;;;19.47;68.24
76460;BME280;65299;46.084;18.762;2023-06-01T04:35:02;100752.63;;;19.43;68.28
76460;BME280;65299;46.084;18.762;2023-06-01T04:38:05;100747.56;;;19.41;69.13
76460;BME280;65299;46.084;18.762;2023-06-01T04:41:05;100744.47;;;19.56;68.63
76460;BME280;65299;46.084;18.762;2023-06-01T04:44:06;100731.63;;;19.00;69.96
76460;BME280;65299;46.084;18.762;2023-06-01T04:47:07;100730.50;;;18.71;71.61
76460;BME280;65299;46.084;18.762;2023-06-01T04:50:09;100730.25;;;18.59;72.23
76460;BME280;65299;46.084;18.762;2023-06-01T04:53:10;100736.41;;;19.03;70.57
76460;BME280;65299;46.084;18.762;2023-06-01T04:56:10;100740.66;;;19.57;69.21
76460;BME280;65299;46.084;18.762;2023-06-01T04:59:11;100743.75;;;19.81;68.31
76460;BME280;65299;46.084;18.762;2023-06-01T05:02:12;100748.34;;;19.81;68.33
76460;BME280;65299;46.084;18.762;2023-06-01T05:05:16;100755.50;;;19.94;68.02
76460;BME280;65299;46.084;18.762;2023-06-01T05:08:16;100748.72;;;20.05;67.41
76460;BME280;65299;46.084;18.762;2023-06-01T05:11:17;100748.72;;;20.14;67.46
76460;BME280;65299;46.084;18.762;2023-06-01T05:14:17;100743.19;;;20.19;67.21
76460;BME280;65299;46.084;18.762;2023-06-01T05:17:18;100739.69;;;20.18;66.82
76460;BME280;65299;46.084;18.762;2023-06-01T05:20:18;100748.78;;;20.56;65.88
76460;BME280;65299;46.084;18.762;2023-06-01T05:23:19;100751.16;;;20.84;65.29
76460;BME280;65299;46.084;18.762;2023-06-01T05:26:19;100752.56;;;20.98;64.69
76460;BME280;65299;46.084;18.762;2023-06-01T05:29:22;100750.19;;;20.88;65.57
76460;BME280;65299;46.084;18.762;2023-06-01T05:32:23;100763.06;;;20.74;64.60
76460;BME280;65299;46.084;18.762;2023-06-01T05:35:23;100748.97;;;20.26;66.33
76460;BME280;65299;46.084;18.762;2023-06-01T05:38:23;100748.63;;;20.70;65.44
76460;BME280;65299;46.084;18.762;2023-06-01T05:41:24;100752.41;;;21.03;64.15
76460;BME280;65299;46.084;18.762;2023-06-01T05:44:25;100753.41;;;20.64;65.63
76460;BME280;65299;46.084;18.762;2023-06-01T05:47:26;100742.44;;;20.27;66.54
76460;BME280;65299;46.084;18.762;2023-06-01T05:50:26;100753.25;;;19.40;68.79
76460;BME280;65299;46.084;18.762;2023-06-01T05:53:27;100746.91;;;19.36;69.21
76460;BME280;65299;46.084;18.762;2023-06-01T05:56:27;100748.50;;;19.76;68.38
76460;BME280;65299;46.084;18.762;2023-06-01T05:59:28;100757.63;;;19.58;68.64
76460;BME280;65299;46.084;18.762;2023-06-01T06:02:28;100753.75;;;19.81;67.98
76460;BME280;65299;46.084;18.762;2023-06-01T06:05:29;100751.31;;;19.62;69.40
76460;BME280;65299;46.084;18.762;2023-06-01T06:08:29;100753.03;;;19.67;69.68
76460;BME280;65299;46.084;18.762;2023-06-01T06:11:30;100754.59;;;19.59;68.77
76460;BME280;65299;46.084;18.762;2023-06-01T06:14:31;100753.75;;;19.81;68.14
76460;BME280;65299;46.084;18.762;2023-06-01T06:17:31;100756.63;;;20.02;67.83
76460;BME280;65299;46.084;18.762;2023-06-01T06:20:32;100755.63;;;19.80;68.21
76460;BME280;65299;46.084;18.762;2023-06-01T06:23:32;100764.72;;;20.02;67.99
76460;BME280;65299;46.084;18.762;2023-06-01T06:26:32;100762.41;;;20.34;67.17
76460;BME280;65299;46.084;18.762;2023-06-01T06:29:33;100770.59;;;20.04;68.10
76460;BME280;65299;46.084;18.762;2023-06-01T06:32:34;100772.81;;;20.10;68.33
76460;BME280;65299;46.084;18.762;2023-06-01T06:35:35;100773.53;;;20.67;66.32
76460;BME280;65299;46.084;18.762;2023-06-01T06:38:35;100777.63;;;21.16;65.00
76460;BME280;65299;46.084;18.762;2023-06-01T06:41:36;100772.81;;;21.38;63.31
76460;BME280;65299;46.084;18.762;2023-06-01T06:44:36;100779.59;;;20.73;65.32
76460;BME280;65299;46.084;18.762;2023-06-01T06:47:37;100772.44;;;21.02;64.80
76460;BME280;65299;46.084;18.762;2023-06-01T06:50:37;100768.78;;;21.15;64.76
76460;BME280;65299;46.084;18.762;2023-06-01T06:53:38;100781.16;;;21.63;64.08
76460;BME280;65299;46.084;18.762;2023-06-01T06:56:39;100762.38;;;21.20;63.72
76460;BME280;65299;46.084;18.762;2023-06-01T06:59:39;100765.72;;;21.72;62.82
76460;BME280;65299;46.084;18.762;2023-06-01T07:02:42;100776.38;;;21.68;62.24
76460;BME280;65299;46.084;18.762;2023-06-01T07:05:44;100761.00;;;21.60;62.55
76460;BME280;65299;46.084;18.762;2023-06-01T07:08:45;100763.34;;;21.99;60.96
76460;BME280;65299;46.084;18.762;2023-06-01T07:11:46;100765.53;;;22.06;61.12
76460;BME280;65299;46.084;18.762;2023-06-01T07:14:47;100763.22;;;22.25;59.67
76460;BME280;65299;46.084;18.762;2023-06-01T07:17:48;100768.72;;;22.58;59.18
76460;BME280;65299;46.084;18.762;2023-06-01T07:20:48;100772.03;;;22.55;59.60
76460;BME280;65299;46.084;18.762;2023-06-01T07:23:49;100771.13;;;22.51;59.56
76460;BME280;65299;46.084;18.762;2023-06-01T07:26:49;100765.28;;;22.69;58.61
76460;BME280;65299;46.084;18.762;2023-06-01T07:29:51;100764.34;;;22.65;58.57
76460;BME280;65299;46.084;18.762;2023-06-01T07:32:55;100762.13;;;23.00;58.16
76460;BME280;65299;46.084;18.762;2023-06-01T07:38:58;100761.22;;;22.34;59.94
76460;BME280;65299;46.084;18.762;2023-06-01T07:41:58;100766.50;;;22.31;59.81
76460;BME280;65299;46.084;18.762;2023-06-01T07:44:59;100762.78;;;22.97;58.61
76460;BME280;65299;46.084;18.762;2023-06-01T07:47:59;100763.53;;;23.30;57.95
76460;BME280;65299;46.084;18.762;2023-06-01T07:51:02;100761.25;;;23.89;56.55
76460;BME280;65299;46.084;18.762;2023-06-01T07:54:02;100751.63;;;23.92;55.50
76460;BME280;65299;46.084;18.762;2023-06-01T07:57:04;100760.53;;;23.44;57.74
76460;BME280;65299;46.084;18.762;2023-06-01T08:00:06;100753.09;;;23.41;58.51
76460;BME280;65299;46.084;18.762;2023-06-01T08:03:10;100755.16;;;24.04;56.87
76460;BME280;65299;46.084;18.762;2023-06-01T08:06:11;100756.47;;;24.22;55.94
76460;BME280;65299;46.084;18.762;2023-06-01T08:09:11;100749.72;;;24.56;54.14
76460;BME280;65299;46.084;18.762;2023-06-01T08:12:14;100747.25;;;23.63;56.42
76460;BME280;65299;46.084;18.762;2023-06-01T08:15:14;100753.00;;;23.85;56.18
76460;BME280;65299;46.084;18.762;2023-06-01T08:18:16;100757.97;;;23.83;56.62
76460;BME280;65299;46.084;18.762;2023-06-01T08:21:16;100758.38;;;24.34;56.22
76460;BME280;65299;46.084;18.762;2023-06-01T08:24:17;100756.00;;;24.32;54.18
76460;BME280;65299;46.084;18.762;2023-06-01T08:27:20;100745.66;;;24.10;56.37
76460;BME280;65299;46.084;18.762;2023-06-01T08:30:20;100745.66;;;23.86;56.15
76460;BME280;65299;46.084;18.762;2023-06-01T08:33:21;100748.53;;;24.29;54.23
76460;BME280;65299;46.084;18.762;2023-06-01T08:36:21;100750.59;;;24.32;55.52
76460;BME280;65299;46.084;18.762;2023-06-01T08:39:23;100747.78;;;25.27;52.15
76460;BME280;65299;46.084;18.762;2023-06-01T08:45:46;100750.53;;;24.84;52.56
76460;BME280;65299;46.084;18.762;2023-06-01T08:48:52;100754.78;;;25.40;51.49
76460;BME280;65299;46.084;18.762;2023-06-01T08:51:56;100746.16;;;25.54;49.84
76460;BME280;65299;46.084;18.762;2023-06-01T08:54:59;100757.06;;;26.04;48.04
76460;BME280;65299;46.084;18.762;2023-06-01T08:58:00;100746.41;;;25.80;50.29
76460;BME280;65299;46.084;18.762;2023-06-01T09:01:01;100743.59;;;25.30;51.33
76460;BME280;65299;46.084;18.762;2023-06-01T09:04:01;100754.16;;;25.63;50.29
76460;BME280;65299;46.084;18.762;2023-06-01T09:07:02;100747.59;;;25.98;50.01
76460;BME280;65299;46.084;18.762;2023-06-01T09:10:02;100742.44;;;25.93;50.72
76460;BME280;65299;46.084;18.762;2023-06-01T09:13:03;100738.97;;;25.77;49.23
76460;BME280;65299;46.084;18.762;2023-06-01T09:16:04;100730.50;;;25.98;49.49
76460;BME280;65299;46.084;18.762;2023-06-01T09:19:05;100732.84;;;25.49;48.76
76460;BME280;65299;46.084;18.762;2023-06-01T09:22:07;100730.09;;;25.33;50.99
76460;BME280;65299;46.084;18.762;2023-06-01T09:25:07;100725.31;;;26.08;47.10
76460;BME280;65299;46.084;18.762;2023-06-01T09:28:08;100736.31;;;25.81;47.17
76460;BME280;65299;46.084;18.762;2023-06-01T09:31:08;100730.84;;;25.96;48.65
76460;BME280;65299;46.084;18.762;2023-06-01T09:34:12;100725.31;;;25.93;47.83
76460;BME280;65299;46.084;18.762;2023-06-01T09:37:15;100726.75;;;25.40;47.67
76460;BME280;65299;46.084;18.762;2023-06-01T09:40:17;100721.94;;;25.18;48.97
76460;BME280;65299;46.084;18.762;2023-06-01T09:43:20;100715.53;;;25.26;48.28
76460;BME280;65299;46.084;18.762;2023-06-01T09:46:21;100725.56;;;25.53;47.63
76460;BME280;65299;46.084;18.762;2023-06-01T09:49:27;100718.28;;;25.57;48.27
76460;BME280;65299;46.084;18.762;2023-06-01T09:52:28;100721.84;;;25.30;49.59
76460;BME280;65299;46.084;18.762;2023-06-01T09:55:28;100717.16;;;25.93;48.22
76460;BME280;65299;46.084;18.762;2023-06-01T09:58:29;100716.44;;;26.11;48.32
76460;BME280;65299;46.084;18.762;2023-06-01T10:01:31;100712.75;;;26.39;47.20
76460;BME280;65299;46.084;18.762;2023-06-01T10:04:32;100712.69;;;26.96;47.29
76460;BME280;65299;46.084;18.762;2023-06-01T10:07:34;100712.59;;;26.51;46.61
76460;BME280;65299;46.084;18.762;2023-06-01T10:10:35;100710.88;;;26.23;47.60
76460;BME280;65299;46.084;18.762;2023-06-01T10:13:36;100706.78;;;26.52;47.22
76460;BME280;65299;46.084;18.762;2023-06-01T10:16:37;100707.00;;;26.63;47.20
76460;BME280;65299;46.084;18.762;2023-06-01T10:19:40;100700.41;;;27.28;45.40
76460;BME280;65299;46.084;18.762;2023-06-01T10:22:42;100685.03;;;26.71;46.02
76460;BME280;65299;46.084;18.762;2023-06-01T10:25:49;100685.63;;;26.65;46.05
76460;BME280;65299;46.084;18.762;2023-06-01T10:28:51;100684.75;;;26.03;46.59
76460;BME280;65299;46.084;18.762;2023-06-01T10:31:52;100681.22;;;26.57;46.77
76460;BME280;65299;46.084;18.762;2023-06-01T10:34:53;100682.94;;;26.07;45.38
76460;BME280;65299;46.084;18.762;2023-06-01T10:41:26;100664.72;;;26.50;46.49
76460;BME280;65299;46.084;18.762;2023-06-01T10:50:42;100666.53;;;27.29;44.52
76460;BME280;65299;46.084;18.762;2023-06-01T10:53:42;100655.13;;;27.99;43.65
76460;BME280;65299;46.084;18.762;2023-06-01T10:56:43;100645.56;;;27.85;43.08
76460;BME280;65299;46.084;18.762;2023-06-01T10:59:43;100645.44;;;27.75;42.89
76460;BME280;65299;46.084;18.762;2023-06-01T11:05:51;100649.44;;;26.83;44.57
76460;BME280;65299;46.084;18.762;2023-06-01T11:08:54;100632.75;;;26.66;45.52
76460;BME280;65299;46.084;18.762;2023-06-01T11:15:09;100626.16;;;27.35;45.27
76460;BME280;65299;46.084;18.762;2023-06-01T11:18:46;100626.06;;;28.13;42.59
76460;BME280;65299;46.084;18.762;2023-06-01T11:21:54;100620.94;;;27.26;43.08
76460;BME280;65299;46.084;18.762;2023-06-01T11:24:57;100603.88;;;27.85;42.99
76460;BME280;65299;46.084;18.762;2023-06-01T11:27:58;100610.75;;;27.75;42.66
76460;BME280;65299;46.084;18.762;2023-06-01T11:31:02;100609.53;;;27.43;42.72
76460;BME280;65299;46.084;18.762;2023-06-01T11:34:03;100608.00;;;28.02;42.06
76460;BME280;65299;46.084;18.762;2023-06-01T11:37:05;100604.81;;;27.66;40.85
76460;BME280;65299;46.084;18.762;2023-06-01T11:40:06;100598.50;;;26.65;43.38
76460;BME280;65299;46.084;18.762;2023-06-01T11:43:08;100594.88;;;27.29;42.11
76460;BME280;65299;46.084;18.762;2023-06-01T11:46:08;100579.88;;;26.67;44.35
76460;BME280;65299;46.084;18.762;2023-06-01T11:49:12;100574.94;;;26.53;44.40
76460;BME280;65299;46.084;18.762;2023-06-01T11:52:14;100577.59;;;27.18;43.55
76460;BME280;65299;46.084;18.762;2023-06-01T11:55:15;100557.78;;;27.21;43.16
76460;BME280;65299;46.084;18.762;2023-06-01T11:58:26;100556.47;;;28.30;41.58
76460;BME280;65299;46.084;18.762;2023-06-01T12:01:27;100553.66;;;26.59;44.11
76460;BME280;65299;46.084;18.762;2023-06-01T12:04:28;100554.50;;;26.40;44.46
76460;BME280;65299;46.084;18.762;2023-06-01T12:07:28;100554.63;;;26.92;41.77
76460;BME280;65299;46.084;18.762;2023-06-01T12:10:29;100546.63;;;27.88;40.57
76460;BME280;65299;46.084;18.762;2023-06-01T12:13:30;100547.81;;;28.24;39.36
76460;BME280;65299;46.084;18.762;2023-06-01T12:16:53;100538.97;;;28.38;38.78
76460;BME280;65299;46.084;18.762;2023-06-01T12:19:54;100535.81;;;28.73;38.16
76460;BME280;65299;46.084;18.762;2023-06-01T12:22:54;100536.88;;;28.24;39.66
76460;BME280;65299;46.084;18.762;2023-06-01T12:25:56;100521.75;;;27.60;40.21
76460;BME280;65299;46.084;18.762;2023-06-01T12:28:58;100527.09;;;27.86;39.63
76460;BME280;65299;46.084;18.762;2023-06-01T12:31:59;100527.13;;;28.20;39.50
76460;BME280;65299;46.084;18.762;2023-06-01T12:35:04;100524.09;;;28.32;39.87
76460;BME280;65299;46.084;18.762;2023-06-01T12:38:07;100521.03;;;27.37;41.43
76460;BME280;65299;46.084;18.762;2023-06-01T12:41:11;100522.28;;;27.17;41.44
76460;BME280;65299;46.084;18.762;2023-06-01T12:44:18;100523.41;;;27.68;40.78
76460;BME280;65299;46.084;18.762;2023-06-01T12:47:18;100525.13;;;28.17;40.31
76460;BME280;65299;46.084;18.762;2023-06-01T12:50:19;100521.59;;;28.16;39.52
76460;BME280;65299;46.084;18.762;2023-06-01T12:53:19;100524.00;;;27.88;40.03
76460;BME280;65299;46.084;18.762;2023-06-01T12:56:20;100513.31;;;28.06;39.55
76460;BME280;65299;46.084;18.762;2023-06-01T12:59:21;100509.22;;;28.66;38.33
76460;BME280;65299;46.084;18.762;2023-06-01T13:02:21;100505.69;;;28.69;37.41
76460;BME280;65299;46.084;18.762;2023-06-01T13:05:21;100500.47;;;29.04;39.84
76460;BME280;65299;46.084;18.762;2023-06-01T13:08:22;100503.41;;;28.31;38.32
76460;BME280;65299;46.084;18.762;2023-06-01T13:11:22;100494.63;;;28.08;38.86
76460;BME280;65299;46.084;18.762;2023-06-01T13:14:23;100493.03;;;28.07;40.06
76460;BME280;65299;46.084;18.762;2023-06-01T13:17:24;100483.81;;;27.48;40.75
76460;BME280;65299;46.084;18.762;2023-06-01T13:20:26;100488.72;;;28.02;38.32
76460;BME280;65299;46.084;18.762;2023-06-01T13:23:27;100484.00;;;27.96;39.30
76460;BME280;65299;46.084;18.762;2023-06-01T13:26:29;100485.16;;;28.38;38.81
76460;BME280;65299;46.084;18.762;2023-06-01T13:29:29;100476.59;;;28.40;38.29
76460;BME280;65299;46.084;18.762;2023-06-01T13:32:29;100468.31;;;28.33;38.69
76460;BME280;65299;46.084;18.762;2023-06-01T13:35:30;100463.63;;;28.30;38.39
76460;BME280;65299;46.084;18.762;2023-06-01T13:38:31;100457.53;;;28.00;38.32
76460;BME280;65299;46.084;18.762;2023-06-01T13:41:31;100457.88;;;28.42;37.76
76460;BME280;65299;46.084;18.762;2023-06-01T13:44:32;100450.75;;;27.90;39.28
76460;BME280;65299;46.084;18.762;2023-06-01T13:47:33;100445.09;;;28.06;38.88
76460;BME280;65299;46.084;18.762;2023-06-01T13:50:33;100435.59;;;28.87;37.60
76460;BME280;65299;46.084;18.762;2023-06-01T13:53:34;100439.09;;;28.33;37.68
76460;BME280;65299;46.084;18.762;2023-06-01T13:56:34;100435.19;;;28.89;37.11
76460;BME280;65299;46.084;18.762;2023-06-01T13:59:35;100428.47;;;28.72;37.12
76460;BME280;65299;46.084;18.762;2023-06-01T14:02:36;100423.47;;;28.85;36.33
76460;BME280;65299;46.084;18.762;2023-06-01T14:05:36;100422.13;;;28.61;37.13
76460;BME280;65299;46.084;18.762;2023-06-01T14:08:37;100413.53;;;28.59;36.95
76460;BME280;65299;46.084;18.762;2023-06-01T14:11:37;100408.84;;;29.24;36.27
76460;BME280;65299;46.084;18.762;2023-06-01T14:14:37;100419.06;;;28.19;38.85
76460;BME280;65299;46.084;18.762;2023-06-01T14:17:38;100413.34;;;27.90;38.67
76460;BME280;65299;46.084;18.762;2023-06-01T14:20:38;100409.34;;;28.18;37.71
76460;BME280;65299;46.084;18.762;2023-06-01T14:23:39;100407.03;;;27.83;38.39
76460;BME280;65299;46.084;18.762;2023-06-01T14:26:41;100397.63;;;28.68;37.89
76460;BME280;65299;46.084;18.762;2023-06-01T14:29:42;100396.50;;;29.73;35.53
76460;BME280;65299;46.084;18.762;2023-06-01T14:32:42;100397.06;;;31.28;32.62
76460;BME280;65299;46.084;18.762;2023-06-01T14:35:43;100395.56;;;31.17;33.36
76460;BME280;65299;46.084;18.762;2023-06-01T14:38:43;100389.66;;;28.49;36.90
76460;BME280;65299;46.084;18.762;2023-06-01T14:41:43;100396.50;;;28.25;38.11
76460;BME280;65299;46.084;18.762;2023-06-01T14:44:44;100396.78;;;28.10;39.36
76460;BME280;65299;46.084;18.762;2023-06-01T14:47:45;100395.53;;;28.00;40.19
76460;BME280;65299;46.084;18.762;2023-06-01T14:50:45;100392.78;;;26.97;41.82
76460;BME280;65299;46.084;18.762;2023-06-01T14:53:45;100383.31;;;26.61;42.28
76460;BME280;65299;46.084;18.762;2023-06-01T14:56:46;100386.69;;;27.07;41.58
76460;BME280;65299;46.084;18.762;2023-06-01T14:59:47;100386.53;;;27.59;39.78
76460;BME280;65299;46.084;18.762;2023-06-01T15:02:47;100373.84;;;30.04;35.10
76460;BME280;65299;46.084;18.762;2023-06-01T15:05:47;100373.44;;;30.48;34.95
76460;BME280;65299;46.084;18.762;2023-06-01T15:08:48;100368.66;;;31.63;34.10
76460;BME280;65299;46.084;18.762;2023-06-01T15:11:48;100379.13;;;31.09;34.08
76460;BME280;65299;46.084;18.762;2023-06-01T15:14:49;100379.63;;;29.49;36.61
76460;BME280;65299;46.084;18.762;2023-06-01T15:17:51;100374.53;;;29.52;37.05
76460;BME280;65299;46.084;18.762;2023-06-01T15:20:51;100383.25;;;28.24;40.19
76460;BME280;65299;46.084;18.762;2023-06-01T15:23:52;100370.63;;;28.05;41.20
76460;BME280;65299;46.084;18.762;2023-06-01T15:26:52;100368.91;;;28.41;41.77
76460;BME280;65299;46.084;18.762;2023-06-01T15:29:53;100364.72;;;28.50;41.99
76460;BME280;65299;46.084;18.762;2023-06-01T15:32:53;100357.00;;;30.16;37.31
76460;BME280;65299;46.084;18.762;2023-06-01T15:35:53;100357.38;;;30.28;36.18
76460;BME280;65299;46.084;18.762;2023-06-01T15:38:54;100354.94;;;29.21;38.26
76460;BME280;65299;46.084;18.762;2023-06-01T15:41:54;100363.22;;;29.46;38.56
76460;BME280;65299;46.084;18.762;2023-06-01T15:44:55;100359.75;;;30.19;37.10
76460;BME280;65299;46.084;18.762;2023-06-01T15:47:55;100360.41;;;29.21;39.35
76460;BME280;65299;46.084;18.762;2023-06-01T15:50:56;100353.91;;;28.64;40.30
76460;BME280;65299;46.084;18.762;2023-06-01T15:53:56;100347.16;;;27.97;41.49
76460;BME280;65299;46.084;18.762;2023-06-01T15:56:57;100338.69;;;28.13;40.69
76460;BME280;65299;46.084;18.762;2023-06-01T15:59:57;100336.53;;;29.11;39.88
76460;BME280;65299;46.084;18.762;2023-06-01T16:02:57;100338.38;;;28.79;39.80
76460;BME280;65299;46.084;18.762;2023-06-01T16:05:58;100328.78;;;28.45;40.23